Time;durP1;ratioP1;P1;durP2;ratioP2;P2;SDS_P1;SDS_P2;PMS_P1;PMS_P2;Temp;Humidity;BMP_temperature;BMP_pressure;BME280_temperature;BME280_humidity;BME280_pressure;Samples;Min_cycle;Max_cycle;Signal;HPM_P1;HPM_P2
2022/10/11 00:00:38;;;;;;;13.23;4.03;;;;;;;5.44;100.00;102298.34;5120864;27;20027;-83
2022/10/11 00:03:04;;;;;;;19.73;4.65;;;;;;;5.41;100.00;102304.03;5138158;27;20045;-83
2022/10/11 00:05:29;;;;;;;12.90;4.10;;;;;;;5.38;100.00;102304.31;5138035;27;20471;-84
2022/10/11 00:07:55;;;;;;;15.45;3.80;;;;;;;5.36;100.00;102301.78;5137818;27;20125;-83
2022/10/11 00:10:21;;;;;;;13.73;3.70;;;;;;;5.37;100.00;102305.31;5156917;27;20458;-83
2022/10/11 00:12:46;;;;;;;16.48;3.95;;;;;;;5.36;100.00;102304.47;5137749;27;20038;-83
2022/10/11 00:15:15;;;;;;;14.80;4.10;;;;;;;5.33;100.00;102298.50;5137562;27;20031;-83
2022/10/11 00:17:40;;;;;;;12.10;4.03;;;;;;;5.31;100.00;102308.59;5137869;27;20058;-83
2022/10/11 00:20:06;;;;;;;13.07;4.67;;;;;;;5.26;100.00;102304.47;5120431;27;20110;-83
2022/10/11 00:22:34;;;;;;;16.95;3.72;;;;;;;5.25;100.00;102305.47;5137758;27;20031;-83
2022/10/11 00:24:59;;;;;;;15.80;4.28;;;;;;;5.21;100.00;102301.38;5104020;27;20068;-83
2022/10/11 00:27:25;;;;;;;12.52;3.63;;;;;;;5.21;100.00;102309.47;5120599;27;20414;-83
2022/10/11 00:29:51;;;;;;;13.40;3.73;;;;;;;5.17;100.00;102304.53;5120374;27;20034;-83
2022/10/11 00:32:16;;;;;;;17.87;4.53;;;;;;;5.13;100.00;102300.41;5120374;27;20030;-83
2022/10/11 00:34:42;;;;;;;15.55;4.55;;;;;;;5.14;100.00;102312.84;5155925;27;20263;-84
2022/10/11 00:37:07;;;;;;;20.63;5.00;;;;;;;5.13;100.00;102314.69;5155924;27;20462;-83
2022/10/11 00:39:33;;;;;;;20.20;5.03;;;;;;;5.09;100.00;102315.97;5137720;27;20431;-83
2022/10/11 00:41:58;;;;;;;13.70;5.43;;;;;;;5.10;100.00;102326.59;5120107;27;20031;-83
2022/10/11 00:44:26;;;;;;;19.25;6.47;;;;;;;5.05;100.00;102333.41;5137060;27;20264;-83
2022/10/11 00:46:56;;;;;;;18.55;5.18;;;;;;;5.03;100.00;102330.00;5137414;27;20041;-83
2022/10/11 00:49:42;;;;;;;19.38;5.70;;;;;;;5.00;100.00;102331.13;5137496;27;20493;-83
2022/10/11 00:52:16;;;;;;;12.40;5.28;;;;;;;4.99;100.00;102329.44;5137187;27;20070;-83
2022/10/11 00:54:45;;;;;;;14.88;5.25;;;;;;;5.00;100.00;102330.28;5136774;27;20030;-83
2022/10/11 00:57:16;;;;;;;17.05;5.15;;;;;;;4.97;100.00;102331.41;5155661;27;20038;-83
2022/10/11 00:59:46;;;;;;;19.08;5.60;;;;;;;4.96;100.00;102331.56;5137380;27;20091;-84
2022/10/11 01:02:13;;;;;;;17.08;5.10;;;;;;;4.96;100.00;102336.94;5137422;27;20355;-84
2022/10/11 01:04:39;;;;;;;17.27;5.82;;;;;;;4.95;100.00;102329.88;5119897;27;20031;-83
2022/10/11 01:07:05;;;;;;;15.57;5.28;;;;;;;4.93;100.00;102340.75;5155467;27;20023;-83
2022/10/11 01:09:30;;;;;;;16.37;5.50;;;;;;;4.90;100.00;102336.53;5136588;27;20058;-87
2022/10/11 01:12:00;;;;;;;14.73;5.60;;;;;;;4.86;100.00;102342.34;5119832;27;20412;-83
2022/10/11 01:14:28;;;;;;;19.85;5.65;;;;;;;4.85;100.00;102338.78;5136776;27;20101;-84
2022/10/11 01:17:16;;;;;;;19.17;4.93;;;;;;;4.81;100.00;102336.50;5137159;27;20087;-83
2022/10/11 01:20:08;;;;;;;13.27;5.30;;;;;;;4.81;100.00;102342.72;5155151;27;20026;-84
2022/10/11 01:22:52;;;;;;;18.02;5.30;;;;;;;4.78;100.00;102342.19;5136517;27;20119;-84
2022/10/11 01:25:39;;;;;;;12.20;4.75;;;;;;;4.75;100.00;102340.59;5137141;27;20034;-84
2022/10/11 01:28:36;;;;;;;15.18;4.70;;;;;;;4.75;100.00;102340.59;5136764;27;20113;-83
2022/10/11 01:31:18;;;;;;;13.70;4.40;;;;;;;4.73;100.00;102342.59;5091606;27;20047;-84
2022/10/11 01:33:52;;;;;;;18.50;4.72;;;;;;;4.71;100.00;102347.25;5137085;27;20366;-83
2022/10/11 01:36:30;;;;;;;20.67;5.13;;;;;;;4.70;100.00;102341.03;5136949;27;20030;-84
2022/10/11 01:39:03;;;;;;;14.35;5.20;;;;;;;4.67;100.00;102344.00;5136679;27;20092;-83
2022/10/11 01:41:51;;;;;;;13.15;4.97;;;;;;;4.63;100.00;102353.34;5137000;27;20084;-84
2022/10/11 01:44:18;;;;;;;16.67;5.45;;;;;;;4.61;100.00;102349.09;5137365;27;20106;-83
2022/10/11 01:46:43;;;;;;;16.90;4.93;;;;;;;4.58;100.00;102350.22;5119624;27;20030;-83
2022/10/11 01:49:09;;;;;;;16.30;4.97;;;;;;;4.60;100.00;102352.78;5123229;27;20031;-83
2022/10/11 01:51:40;;;;;;;16.05;4.88;;;;;;;4.60;100.00;102350.09;5141407;27;20027;-83
2022/10/11 01:54:30;;;;;;;23.15;5.78;;;;;;;4.60;100.00;102353.63;5141313;27;20507;-83
2022/10/11 01:57:05;;;;;;;13.02;4.70;;;;;;;4.60;100.00;102352.78;5140372;27;20035;-83
2022/10/11 01:59:52;;;;;;;15.87;5.40;;;;;;;4.58;100.00;102360.97;5140989;27;20411;-83
2022/10/11 02:02:38;;;;;;;12.38;5.00;;;;;;;4.54;100.00;102363.06;5140286;27;20068;-84
2022/10/11 02:05:28;;;;;;;11.45;4.72;;;;;;;4.51;100.00;102365.22;5140608;27;20083;-83
2022/10/11 02:08:37;;;;;;;12.50;4.57;;;;;;;4.47;100.00;102363.78;5136432;27;20085;-84
2022/10/11 02:11:06;;;;;;;14.80;5.45;;;;;;;4.42;100.00;102363.34;5137724;27;20096;-83
2022/10/11 02:13:38;;;;;;;14.57;4.80;;;;;;;4.39;100.00;102359.94;5138042;27;20064;-83
2022/10/11 02:16:10;;;;;;;15.45;4.97;;;;;;;4.37;100.00;102361.91;5137620;27;20026;-83
2022/10/11 02:18:41;;;;;;;11.98;5.03;;;;;;;4.34;100.00;102364.00;5119923;27;20031;-83
2022/10/11 02:21:11;;;;;;;19.45;5.25;;;;;;;4.33;100.00;102365.88;5136851;27;20027;-83
2022/10/11 02:23:41;;;;;;;11.85;4.95;;;;;;;4.31;100.00;102375.91;5136766;27;20114;-83
2022/10/11 02:26:10;;;;;;;12.83;5.10;;;;;;;4.27;100.00;102371.78;5136774;27;20046;-83
2022/10/11 02:28:38;;;;;;;18.38;5.53;;;;;;;4.27;100.00;102369.09;5136340;27;20409;-83
2022/10/11 02:31:05;;;;;;;16.20;5.32;;;;;;;4.26;100.00;102362.03;5136337;27;20459;-83
2022/10/11 02:33:38;;;;;;;14.02;5.15;;;;;;;4.22;100.00;102369.53;5137089;27;20031;-84
2022/10/11 02:36:14;;;;;;;11.82;4.85;;;;;;;4.21;100.00;102372.34;5137066;27;20505;-84
2022/10/11 02:38:52;;;;;;;12.50;4.87;;;;;;;4.17;100.00;102377.13;5136519;27;20035;-83
2022/10/11 02:41:26;;;;;;;11.80;5.00;;;;;;;4.13;100.00;102370.31;5119106;27;20031;-83
2022/10/11 02:44:01;;;;;;;13.27;5.00;;;;;;;4.11;100.00;102376.81;5136652;27;20039;-83
2022/10/11 02:46:29;;;;;;;12.77;5.22;;;;;;;4.10;100.00;102378.63;5136435;27;20134;-83
2022/10/11 02:48:57;;;;;;;11.98;5.50;;;;;;;4.10;100.00;102375.13;5136099;27;20035;-83
2022/10/11 02:51:25;;;;;;;12.90;5.40;;;;;;;4.10;100.00;102367.06;5118851;27;20081;-83
2022/10/11 02:53:51;;;;;;;17.25;4.93;;;;;;;4.08;100.00;102372.56;5135992;27;20058;-83
2022/10/11 02:56:17;;;;;;;15.73;5.07;;;;;;;4.04;100.00;102369.31;5135703;27;20035;-83
2022/10/11 02:58:42;;;;;;;14.37;5.00;;;;;;;4.01;100.00;102361.50;5118216;27;20077;-83
2022/10/11 03:01:08;;;;;;;13.97;5.30;;;;;;;4.00;100.00;102372.38;5101648;27;20054;-84
2022/10/11 03:03:33;;;;;;;16.17;5.93;;;;;;;3.96;100.00;102370.97;5118630;27;20529;-83
2022/10/11 03:06:00;;;;;;;14.15;5.15;;;;;;;3.97;100.00;102378.03;5101495;27;20031;-83
2022/10/11 03:08:26;;;;;;;18.83;5.27;;;;;;;3.96;100.00;102373.66;5118475;27;20051;-83
2022/10/11 03:10:51;;;;;;;15.15;5.20;;;;;;;3.94;100.00;102379.16;5101766;27;20383;-83
2022/10/11 03:13:16;;;;;;;15.07;5.70;;;;;;;3.91;100.00;102382.09;5118131;27;20027;-84
2022/10/11 03:15:53;;;;;;;12.90;5.60;;;;;;;3.89;100.00;102384.06;5101734;27;20031;-83
2022/10/11 03:18:21;;;;;;;22.15;5.80;;;;;;;3.88;100.00;102382.34;5118032;27;20027;-83
2022/10/11 03:20:46;;;;;;;18.30;5.93;;;;;;;3.89;100.00;102385.91;5119049;27;20031;-83
2022/10/11 03:23:12;;;;;;;15.40;5.77;;;;;;;3.85;100.00;102377.25;5118339;27;20029;-83
2022/10/11 03:25:41;;;;;;;13.20;6.00;;;;;;;3.84;100.00;102386.31;5118008;27;20038;-84
2022/10/11 03:28:06;;;;;;;15.98;6.68;;;;;;;3.85;100.00;102388.88;5117946;27;20474;-83
2022/10/11 03:30:32;;;;;;;17.10;6.20;;;;;;;3.86;100.00;102387.88;5117984;27;20031;-83
2022/10/11 03:32:57;;;;;;;13.93;5.90;;;;;;;3.85;100.00;102390.69;5117873;27;20031;-83
2022/10/11 03:35:23;;;;;;;12.68;6.38;;;;;;;3.79;100.00;102384.00;5117912;27;20491;-83
2022/10/11 03:37:51;;;;;;;14.60;5.60;;;;;;;3.76;100.00;102388.81;5117582;27;20495;-82
2022/10/11 03:40:18;;;;;;;14.50;6.47;;;;;;;3.77;100.00;102387.81;5100558;27;20128;-83
2022/10/11 03:42:44;;;;;;;19.67;6.60;;;;;;;3.78;100.00;102392.19;5100952;27;20471;-83
2022/10/11 03:45:09;;;;;;;19.63;7.43;;;;;;;3.77;100.00;102390.50;5100382;27;20067;-84
2022/10/11 03:47:38;;;;;;;14.63;6.37;;;;;;;3.77;100.00;102395.88;5083672;27;20327;-83
2022/10/11 03:50:06;;;;;;;19.10;6.65;;;;;;;3.76;100.00;102400.38;5117571;27;20019;-83
2022/10/11 03:52:31;;;;;;;13.65;6.72;;;;;;;3.75;100.00;102406.75;5117584;27;20023;-83
2022/10/11 03:54:57;;;;;;;17.23;7.30;;;;;;;3.72;100.00;102407.03;5117282;27;20038;-84
2022/10/11 03:57:22;;;;;;;13.83;6.60;;;;;;;3.69;100.00;102402.75;5117517;27;20112;-83
2022/10/11 03:59:48;;;;;;;17.00;6.35;;;;;;;3.68;100.00;102408.25;5117250;27;20099;-83
2022/10/11 04:02:16;;;;;;;15.20;5.95;;;;;;;3.66;100.00;102405.72;5136081;27;20027;-83
2022/10/11 04:04:42;;;;;;;17.27;6.68;;;;;;;3.67;100.00;102407.41;5117478;27;20031;-84
2022/10/11 04:07:08;;;;;;;15.87;6.70;;;;;;;3.66;100.00;102411.09;5117223;27;20072;-84
2022/10/11 04:09:34;;;;;;;18.45;7.25;;;;;;;3.68;100.00;102416.31;5120010;27;20488;-83
2022/10/11 04:12:00;;;;;;;13.32;6.90;;;;;;;3.66;100.00;102404.84;5137789;27;20027;-83
2022/10/11 04:14:25;;;;;;;18.50;7.77;;;;;;;3.66;100.00;102408.41;5137446;27;20023;-83
2022/10/11 04:16:51;;;;;;;13.30;6.83;;;;;;;3.65;100.00;102409.38;5138537;27;20113;-83
2022/10/11 04:19:16;;;;;;;16.70;6.93;;;;;;;3.65;100.00;102416.59;5155946;27;20126;-83
2022/10/11 04:21:42;;;;;;;16.95;6.78;;;;;;;3.63;100.00;102416.72;5137696;27;20023;-83
2022/10/11 04:24:10;;;;;;;20.37;7.40;;;;;;;3.61;100.00;102424.03;5120584;27;20038;-83
2022/10/11 04:26:38;;;;;;;17.35;7.22;;;;;;;3.66;100.00;102423.63;5137367;27;20462;-83
2022/10/11 04:29:04;;;;;;;12.23;6.90;;;;;;;3.66;100.00;102423.63;5137440;27;20030;-83
2022/10/11 04:31:29;;;;;;;15.45;6.70;;;;;;;3.66;100.00;102431.69;5137718;27;20023;-83
2022/10/11 04:33:56;;;;;;;17.83;7.73;;;;;;;3.65;100.00;102433.53;5121002;27;20050;-83
2022/10/11 04:36:21;;;;;;;14.27;6.50;;;;;;;3.63;100.00;102438.19;5156499;27;20278;-83
2022/10/11 04:38:47;;;;;;;16.13;6.68;;;;;;;3.60;100.00;102427.72;5136990;27;20118;-83
2022/10/11 04:41:14;;;;;;;16.47;6.67;;;;;;;3.62;100.00;102435.63;5120560;27;20113;-83
2022/10/11 04:43:39;;;;;;;14.07;7.13;;;;;;;3.62;100.00;102433.78;5137271;27;20079;-83
2022/10/11 04:46:06;;;;;;;14.60;6.80;;;;;;;3.59;100.00;102439.44;5137381;27;20030;-83
2022/10/11 04:48:31;;;;;;;12.30;6.60;;;;;;;3.57;100.00;102436.00;5137232;27;20118;-83
2022/10/11 04:50:57;;;;;;;17.00;6.72;;;;;;;3.56;100.00;102436.13;5137238;27;20149;-83
2022/10/11 04:53:22;;;;;;;17.00;6.80;;;;;;;3.55;100.00;102443.34;5136860;27;20460;-83
2022/10/11 04:56:03;;;;;;;10.77;6.93;;;;;;;3.50;100.00;102449.09;5136742;27;20035;-83
2022/10/11 04:58:30;;;;;;;11.05;6.13;;;;;;;3.46;100.00;102442.28;5137465;27;20373;-83
2022/10/11 05:00:56;;;;;;;18.45;6.72;;;;;;;3.46;100.00;102450.34;5137044;27;20118;-83
2022/10/11 05:03:21;;;;;;;14.48;6.55;;;;;;;3.45;100.00;102442.41;5155339;27;20457;-83
2022/10/11 05:05:47;;;;;;;13.17;6.70;;;;;;;3.46;100.00;102444.13;5136992;27;20071;-84
2022/10/11 05:08:12;;;;;;;12.52;6.28;;;;;;;3.43;100.00;102436.34;5136541;27;20077;-83
2022/10/11 05:10:38;;;;;;;19.33;6.97;;;;;;;3.43;100.00;102441.72;5137718;27;20031;-83
2022/10/11 05:13:03;;;;;;;20.00;7.37;;;;;;;3.43;100.00;102449.75;5136797;27;20022;-84
2022/10/11 05:15:29;;;;;;;14.50;7.03;;;;;;;3.40;100.00;102440.13;5136892;27;20022;-83
2022/10/11 05:17:54;;;;;;;15.85;6.70;;;;;;;3.38;100.00;102452.84;5136443;27;20026;-83
2022/10/11 05:20:20;;;;;;;19.77;7.07;;;;;;;3.33;100.00;102458.56;5136499;27;20025;-84
2022/10/11 05:22:45;;;;;;;19.80;7.37;;;;;;;3.32;100.00;102448.81;5138481;27;20121;-84
2022/10/11 05:25:11;;;;;;;18.75;7.22;;;;;;;3.34;100.00;102454.06;5124190;27;20374;-83
2022/10/11 05:27:36;;;;;;;15.57;7.15;;;;;;;3.32;100.00;102454.19;5140998;27;20027;-83
2022/10/11 05:30:03;;;;;;;13.53;6.80;;;;;;;3.30;100.00;102449.94;5124585;27;20034;-84
2022/10/11 05:32:28;;;;;;;18.33;6.97;;;;;;;3.29;100.00;102458.94;5140852;27;20034;-86
2022/10/11 05:34:54;;;;;;;19.77;7.00;;;;;;;3.23;100.00;102460.31;5141272;27;20030;-85
2022/10/11 05:37:19;;;;;;;13.40;6.97;;;;;;;3.19;100.00;102460.69;5141341;27;20495;-86
2022/10/11 05:39:48;;;;;;;19.10;6.15;;;;;;;3.16;100.00;102470.72;5106053;27;20114;-85
2022/10/11 05:42:16;;;;;;;16.92;6.68;;;;;;;3.15;100.00;102465.47;5159501;27;20026;-86
2022/10/11 05:44:42;;;;;;;13.25;7.18;;;;;;;3.15;100.00;102466.31;5140738;27;20027;-86
2022/10/11 05:47:07;;;;;;;13.90;6.97;;;;;;;3.16;100.00;102473.38;5105932;27;20550;-83
2022/10/11 05:49:33;;;;;;;13.90;6.67;;;;;;;3.18;100.00;102477.78;5140559;27;20071;-84
2022/10/11 05:51:58;;;;;;;17.33;7.23;;;;;;;3.15;100.00;102471.69;5123185;27;20037;-84
2022/10/11 05:54:24;;;;;;;15.60;7.17;;;;;;;3.15;100.00;102473.53;5140403;27;20037;-84
2022/10/11 05:56:49;;;;;;;17.42;7.80;;;;;;;3.14;100.00;102478.03;5124064;27;20489;-84
2022/10/11 05:59:14;;;;;;;16.23;6.88;;;;;;;3.13;100.00;102476.31;5139898;27;20122;-83
2022/10/11 06:01:40;;;;;;;14.83;6.93;;;;;;;3.12;100.00;102481.81;5124083;27;20075;-85
2022/10/11 06:04:10;;;;;;;15.23;7.23;;;;;;;3.12;100.00;102487.19;5140259;27;20049;-85
2022/10/11 06:06:36;;;;;;;12.88;7.03;;;;;;;3.13;100.00;102487.06;5123279;27;20038;-86
2022/10/11 06:09:01;;;;;;;21.00;7.63;;;;;;;3.15;100.00;102489.59;5139705;27;20047;-84
2022/10/11 06:11:41;;;;;;;12.77;6.95;;;;;;;3.21;100.00;102499.00;5140579;27;20684;-92
2022/10/11 06:14:27;;;;;;;;;;;;;;;;;;;;;
2022/10/11 06:16:58;;;;;;;18.27;8.30;;;;;;;3.25;100.00;102493.25;5143080;27;20041;-92
2022/10/11 06:19:23;;;;;;;17.52;8.13;;;;;;;3.29;100.00;102496.50;5123958;27;20070;-90
2022/10/11 06:21:59;;;;;;;17.33;8.23;;;;;;;3.32;100.00;102502.50;5140245;27;20026;-91
2022/10/11 06:24:29;;;;;;;17.58;8.43;;;;;;;3.34;100.00;102510.41;5123376;27;20477;-90
2022/10/11 06:27:07;;;;;;;;;;;;;;;;;;;;;
2022/10/11 06:29:34;;;;;;;16.38;8.18;;;;;;;3.41;100.00;102511.59;5158715;27;20031;-90
2022/10/11 06:32:00;;;;;;;17.42;7.82;;;;;;;3.47;100.00;102515.59;5157666;27;20497;-90
2022/10/11 06:34:46;;;;;;;20.17;7.80;;;;;;;3.51;100.00;102509.88;5138608;27;20031;-90
2022/10/11 06:37:20;;;;;;;19.65;8.18;;;;;;;3.58;100.00;102512.88;5128764;27;20517;-90
2022/10/11 06:39:53;;;;;;;16.38;8.50;;;;;;;3.65;100.00;102519.44;5157739;27;20084;-91
2022/10/11 06:42:18;;;;;;;17.98;8.45;;;;;;;3.73;100.00;102516.09;5123544;27;20042;-90
2022/10/11 06:44:47;;;;;;;22.13;8.47;;;;;;;3.81;100.00;102523.50;5122588;27;20030;-90
2022/10/11 06:47:14;;;;;;;19.15;8.82;;;;;;;3.91;100.00;102523.56;5138918;27;20030;-90
2022/10/11 06:49:45;;;;;;;27.55;9.52;;;;;;;3.97;100.00;102517.69;5140402;27;20050;-90
2022/10/11 06:52:15;;;;;;;19.07;9.43;;;;;;;4.06;100.00;102522.28;5140460;27;20027;-90
2022/10/11 06:54:44;;;;;;;21.33;9.88;;;;;;;4.14;100.00;102521.63;5139752;27;20446;-91
2022/10/11 06:57:23;;;;;;;;;;;;;;;;;;;;;
2022/10/11 06:59:58;;;;;;;26.88;9.38;;;;;;;4.29;100.00;102527.50;5158027;27;20426;-91
2022/10/11 07:02:28;;;;;;;17.58;8.93;;;;;;;4.39;100.00;102537.31;5140091;27;20031;-92
2022/10/11 07:04:54;;;;;;;21.77;10.00;;;;;;;4.49;100.00;102533.84;5123248;27;20038;-84
2022/10/11 07:07:19;;;;;;;19.33;9.60;;;;;;;4.57;100.00;102537.53;5157224;27;20018;-85
2022/10/11 07:09:47;;;;;;;20.70;9.83;;;;;;;4.64;100.00;102540.56;5122248;27;20212;-85
2022/10/11 07:12:12;;;;;;;29.17;10.00;;;;;;;4.74;100.00;102543.31;5121396;27;20039;-85
2022/10/11 07:14:38;;;;;;;25.50;10.83;;;;;;;4.83;100.00;102538.94;5121707;27;20480;-85
2022/10/11 07:17:03;;;;;;;23.67;10.43;;;;;;;4.92;100.00;102551.56;5138650;27;20134;-85
2022/10/11 07:19:29;;;;;;;24.50;11.30;;;;;;;5.02;100.00;102551.59;5157583;27;20054;-85
2022/10/11 07:21:54;;;;;;;24.70;10.32;;;;;;;5.08;100.00;102557.28;5138720;27;20398;-85
2022/10/11 07:24:20;;;;;;;19.77;10.23;;;;;;;5.16;100.00;102553.91;5138959;27;20079;-85
2022/10/11 07:26:45;;;;;;;30.80;11.30;;;;;;;5.23;100.00;102557.75;5138985;27;20362;-85
2022/10/11 07:29:11;;;;;;;21.20;10.63;;;;;;;5.31;100.00;102556.19;5139077;27;20035;-85
2022/10/11 07:31:41;;;;;;;26.15;10.65;;;;;;;5.43;100.00;102560.47;5138206;27;20023;-85
2022/10/11 07:34:08;;;;;;;21.60;10.90;;;;;;;5.49;100.00;102557.19;5157026;27;20035;-85
2022/10/11 07:36:34;;;;;;;26.45;10.25;;;;;;;5.59;100.00;102560.75;5138088;27;20394;-85
2022/10/11 07:39:01;;;;;;;24.58;10.65;;;;;;;5.70;100.00;102556.22;5156620;27;20489;-85
2022/10/11 07:41:27;;;;;;;21.17;11.10;;;;;;;5.78;100.00;102556.38;5138564;27;20031;-85
2022/10/11 07:43:53;;;;;;;23.20;10.45;;;;;;;5.87;100.00;102562.78;5138900;27;20049;-85
2022/10/11 07:46:19;;;;;;;20.83;10.30;;;;;;;5.96;100.00;102553.81;5137255;27;20103;-86
2022/10/11 07:48:48;;;;;;;20.63;10.63;;;;;;;6.05;100.00;102557.53;5138015;27;20023;-86
2022/10/11 07:51:24;;;;;;;22.50;10.57;;;;;;;6.14;100.00;102562.94;5138134;27;20031;-85
2022/10/11 07:53:56;;;;;;;21.90;11.00;;;;;;;6.25;100.00;102561.91;5157241;27;20026;-85
2022/10/11 07:56:26;;;;;;;20.13;9.88;;;;;;;6.36;100.00;102563.56;5138035;27;20537;-85
2022/10/11 07:58:54;;;;;;;20.30;9.18;;;;;;;6.44;100.00;102566.41;5138844;27;20049;-85
2022/10/11 08:01:20;;;;;;;26.08;9.70;;;;;;;6.53;100.00;102578.16;5138745;27;20027;-85
2022/10/11 08:03:47;;;;;;;19.42;9.48;;;;;;;6.60;100.00;102562.22;5120878;27;20058;-85
2022/10/11 08:06:17;;;;;;;23.77;9.15;;;;;;;6.70;100.00;102567.59;5137490;27;20466;-85
2022/10/11 08:08:43;;;;;;;22.85;8.73;;;;;;;6.77;100.00;102576.81;5137622;27;20055;-85
2022/10/11 08:11:09;;;;;;;19.73;8.73;;;;;;;6.87;100.00;102572.22;5137743;27;20370;-85
2022/10/11 08:13:35;;;;;;;15.90;9.18;;;;;;;6.99;100.00;102581.81;5137735;27;20023;-85
2022/10/11 08:16:07;;;;;;;19.48;8.70;;;;;;;7.08;100.00;102580.06;5156330;27;20054;-85
2022/10/11 08:18:33;;;;;;;22.08;8.95;;;;;;;7.20;100.00;102576.19;5137445;27;20054;-85
2022/10/11 08:20:58;;;;;;;22.53;8.53;;;;;;;7.32;100.00;102581.38;5138201;27;20115;-85
2022/10/11 08:23:23;;;;;;;23.53;8.33;;;;;;;7.45;100.00;102578.31;5137436;27;20031;-85
2022/10/11 08:25:55;;;;;;;18.47;7.93;;;;;;;7.56;100.00;102580.81;5120096;27;20031;-85
2022/10/11 08:28:20;;;;;;;16.27;8.70;;;;;;;7.68;100.00;102570.63;5137721;27;20026;-85
2022/10/11 08:30:48;;;;;;;16.23;7.97;;;;;;;7.83;100.00;102579.88;5137267;27;20394;-85
2022/10/11 08:33:14;;;;;;;18.35;8.73;;;;;;;7.96;100.00;102584.88;5137345;27;20019;-86
2022/10/11 08:35:39;;;;;;;15.50;8.52;;;;;;;8.08;100.00;102585.50;5120420;27;20534;-85
2022/10/11 08:38:05;;;;;;;17.83;7.97;;;;;;;8.22;100.00;102579.53;5136910;27;20363;-85
2022/10/11 08:40:30;;;;;;;18.33;8.07;;;;;;;8.33;100.00;102583.84;5137468;27;20058;-85
2022/10/11 08:43:01;;;;;;;18.60;6.97;;;;;;;8.46;100.00;102588.88;5138056;27;20067;-86
2022/10/11 08:45:35;;;;;;;21.70;7.03;;;;;;;8.60;100.00;102582.84;5137464;27;20474;-85
2022/10/11 08:48:21;;;;;;;14.80;6.05;;;;;;;8.74;100.00;102581.41;5137316;27;20113;-85
2022/10/11 08:50:51;;;;;;;20.73;6.50;;;;;;;8.87;100.00;102583.69;5137360;27;20030;-85
2022/10/11 08:53:38;;;;;;;17.75;6.10;;;;;;;9.02;100.00;102589.34;5155352;27;20033;-85
2022/10/11 08:56:04;;;;;;;18.73;5.37;;;;;;;9.11;100.00;102588.34;5136842;27;20378;-86
2022/10/11 08:58:40;;;;;;;12.57;3.90;;;;;;;9.24;100.00;102597.88;5136904;27;20117;-85
2022/10/11 09:01:14;;;;;;;17.23;4.50;;;;;;;9.37;100.00;102597.41;5137407;27;20036;-85
2022/10/11 09:03:43;;;;;;;14.18;5.07;;;;;;;9.49;100.00;102590.66;5137205;27;20027;-86
2022/10/11 09:06:20;;;;;;;15.38;5.13;;;;;;;9.64;100.00;102601.72;5155423;27;20105;-85
2022/10/11 09:09:25;;;;;;;12.00;4.90;;;;;;;9.77;100.00;102601.22;5136403;27;20062;-86
2022/10/11 09:12:12;;;;;;;16.55;4.95;;;;;;;9.92;100.00;102602.28;5136850;27;20043;-86
2022/10/11 09:15:13;;;;;;;14.88;3.63;;;;;;;10.05;99.62;102606.34;5155263;27;20474;-86
2022/10/11 09:18:12;;;;;;;10.57;3.50;;;;;;;10.17;97.98;102608.56;5140526;27;20474;-85
2022/10/11 09:21:15;;;;;;;11.18;3.45;;;;;;;10.30;97.92;102612.63;5136463;27;20046;-86
2022/10/11 09:24:12;;;;;;;11.43;3.67;;;;;;;10.36;98.15;102606.53;5094147;27;20062;-86
2022/10/11 09:26:55;;;;;;;12.73;3.42;;;;;;;10.44;98.13;102603.81;5136485;27;20040;-86
2022/10/11 09:29:56;;;;;;;13.43;3.88;;;;;;;10.53;96.88;102608.22;5136723;27;20110;-86
2022/10/11 09:32:27;;;;;;;12.02;3.22;;;;;;;10.66;93.83;102604.97;5154921;27;20500;-86
2022/10/11 09:35:18;;;;;;;13.90;2.38;;;;;;;10.79;93.50;102600.84;5136512;27;20031;-87
2022/10/11 09:37:53;;;;;;;10.63;2.57;;;;;;;10.86;92.05;102596.44;5137133;27;20041;-86
2022/10/11 09:40:32;;;;;;;16.52;3.35;;;;;;;10.95;91.43;102602.69;5136596;27;20027;-86
2022/10/11 09:42:58;;;;;;;8.68;2.20;;;;;;;11.05;90.39;102606.88;5136756;27;20121;-85
2022/10/11 09:45:24;;;;;;;12.82;3.15;;;;;;;11.14;91.05;102596.00;5135920;27;20058;-86
2022/10/11 09:47:52;;;;;;;12.40;2.80;;;;;;;11.24;88.92;102596.63;5136061;27;20027;-86
2022/10/11 09:50:22;;;;;;;11.35;2.35;;;;;;;11.31;88.25;102594.03;5136397;27;20126;-85
2022/10/11 09:52:53;;;;;;;9.40;2.53;;;;;;;11.40;88.24;102593.81;5155023;27;20031;-86
2022/10/11 09:55:35;;;;;;;14.30;2.60;;;;;;;11.51;88.11;102600.72;5154681;27;20087;-86
2022/10/11 09:58:21;;;;;;;10.52;2.40;;;;;;;11.61;85.89;102594.22;5154654;27;20056;-86
2022/10/11 10:00:57;;;;;;;10.13;2.23;;;;;;;11.74;87.23;102599.91;5135884;27;20079;-86
2022/10/11 10:03:37;;;;;;;12.70;3.03;;;;;;;11.88;85.61;102593.66;5136445;27;20121;-86
2022/10/11 10:06:19;;;;;;;12.20;1.77;;;;;;;12.01;80.04;102595.81;5136692;27;20114;-86
2022/10/11 10:08:46;;;;;;;11.00;1.70;;;;;;;12.19;81.12;102600.09;5155914;27;20485;-85
2022/10/11 10:11:13;;;;;;;10.85;1.52;;;;;;;12.37;81.48;102606.06;5123170;27;20027;-86
2022/10/11 10:13:51;;;;;;;9.23;1.30;;;;;;;12.44;74.51;102598.84;5140155;27;20037;-86
2022/10/11 10:16:29;;;;;;;10.15;1.70;;;;;;;12.55;76.51;102583.94;5158881;27;20062;-85
2022/10/11 10:19:01;;;;;;;9.82;1.38;;;;;;;12.71;73.04;102591.09;5139881;27;20030;-86
2022/10/11 10:21:31;;;;;;;8.55;1.60;;;;;;;12.88;73.93;102590.91;5140485;27;20031;-86
2022/10/11 10:24:01;;;;;;;5.55;1.30;;;;;;;13.03;72.95;102585.44;5139913;27;20450;-86
2022/10/11 10:26:30;;;;;;;5.77;1.57;;;;;;;13.15;70.34;102586.66;5140791;27;20026;-85
2022/10/11 10:28:56;;;;;;;8.35;1.75;;;;;;;13.25;69.70;102580.91;5139717;27;20080;-86
2022/10/11 10:31:24;;;;;;;9.33;1.53;;;;;;;13.37;66.21;102578.56;5139970;27;20030;-86
2022/10/11 10:33:54;;;;;;;9.60;1.50;;;;;;;13.49;67.18;102580.59;5139255;27;20026;-86
2022/10/11 10:36:29;;;;;;;5.75;1.70;;;;;;;13.67;66.11;102579.31;5122740;27;20060;-86
2022/10/11 10:39:00;;;;;;;7.60;1.67;;;;;;;13.82;64.31;102588.28;5139178;27;20072;-86
2022/10/11 10:41:26;;;;;;;7.37;0.97;;;;;;;14.02;61.17;102583.03;5139740;27;20039;-87
2022/10/11 10:43:55;;;;;;;7.65;1.20;;;;;;;14.31;62.51;102580.31;5157621;27;20027;-87
2022/10/11 10:46:36;;;;;;;9.02;1.45;;;;;;;14.65;62.52;102584.16;5138946;27;20113;-86
2022/10/11 10:49:43;;;;;;;6.53;1.37;;;;;;;14.96;63.21;102585.59;5139497;27;20030;-86
2022/10/11 10:52:24;;;;;;;6.05;1.17;;;;;;;15.49;59.83;102583.06;5158439;27;20026;-86
2022/10/11 10:55:11;;;;;;;6.72;1.13;;;;;;;15.98;59.55;102578.34;5139212;27;20030;-86
2022/10/11 10:57:51;;;;;;;7.97;1.30;;;;;;;17.10;55.34;102569.34;5139406;27;20106;-86
2022/10/11 11:00:22;;;;;;;3.88;1.38;;;;;;;19.97;49.19;102562.91;5138918;27;20022;-87
2022/10/11 11:02:53;;;;;;;6.37;1.50;;;;;;;22.72;42.67;102572.41;5139107;27;20045;-87
2022/10/11 11:05:39;;;;;;;7.43;1.25;;;;;;;25.69;43.20;102563.84;5157819;27;20030;-87
2022/10/11 11:08:20;;;;;;;5.95;1.60;;;;;;;28.26;35.52;102567.50;5138378;27;20051;-87
2022/10/11 11:11:09;;;;;;;8.55;1.80;;;;;;;30.35;34.46;102560.31;5139080;27;20034;-87
2022/10/11 11:13:49;;;;;;;8.05;2.15;;;;;;;31.91;26.34;102556.63;5138941;27;20416;-87
2022/10/11 11:16:41;;;;;;;11.20;2.33;;;;;;;33.35;26.88;102553.31;5138875;27;20482;-87
2022/10/11 11:19:38;;;;;;;7.75;2.30;;;;;;;35.06;28.94;102553.75;5138818;27;20095;-87
2022/10/11 11:22:22;;;;;;;7.70;2.30;;;;;;;35.88;24.39;102541.91;5138318;27;20034;-87
2022/10/11 11:25:22;;;;;;;11.07;2.80;;;;;;;35.48;25.35;102534.81;5138846;27;20537;-87
2022/10/11 11:28:19;;;;;;;11.25;3.15;;;;;;;36.21;22.38;102529.72;5138758;27;20410;-85
2022/10/11 11:31:12;;;;;;;11.93;2.57;;;;;;;37.63;23.68;102525.19;5139302;27;20370;-85
2022/10/11 11:33:54;;;;;;;13.70;2.90;;;;;;;38.58;19.46;102515.09;5138742;27;20039;-85
2022/10/11 11:36:29;;;;;;;8.32;3.03;;;;;;;38.43;17.55;102503.41;5138290;27;20074;-85
2022/10/11 11:39:01;;;;;;;9.15;2.90;;;;;;;38.67;17.03;102512.03;5138347;27;20114;-85
2022/10/11 11:41:39;;;;;;;11.23;3.65;;;;;;;39.17;17.53;102498.16;5137895;27;20030;-85